createdAt,value
2023-01-27T00:00:59.382Z,57.43
2023-01-27T00:03:27.124Z,57.02
2023-01-27T00:05:54.776Z,56.85
2023-01-27T00:08:22.427Z,56.37
2023-01-27T00:11:10.615Z,55.40
2023-01-27T00:13:38.656Z,53.70
2023-01-27T00:16:06.981Z,53.37
2023-01-27T00:18:34.662Z,53.73
2023-01-27T00:21:19.723Z,54.12
2023-01-27T00:24:05.117Z,54.08
2023-01-27T00:26:32.777Z,54.25
2023-01-27T00:29:01.844Z,54.19
2023-01-27T00:31:46.917Z,53.98
2023-01-27T00:34:14.634Z,53.87
2023-01-27T00:36:43.392Z,53.98
2023-01-27T00:39:12.647Z,54.54
2023-01-27T00:41:40.966Z,54.69
2023-01-27T00:44:12.987Z,54.93
2023-01-27T00:46:41.194Z,55.72
2023-01-27T00:49:09.083Z,55.79
2023-01-27T00:51:36.984Z,55.80
2023-01-27T00:54:05.200Z,56.33
2023-01-27T00:56:33.025Z,56.65
2023-01-27T00:59:00.782Z,56.74
2023-01-27T01:01:29.960Z,57.05
2023-01-27T01:03:58.791Z,56.87
2023-01-27T01:06:26.817Z,57.33
2023-01-27T01:08:56.766Z,57.64
2023-01-27T01:11:24.930Z,57.73
2023-01-27T01:13:55.930Z,57.70
2023-01-27T01:16:25.397Z,57.99
2023-01-27T01:18:54.869Z,57.85
2023-01-27T01:21:22.900Z,58.19
2023-01-27T01:23:50.741Z,58.44
2023-01-27T01:26:19.174Z,58.70
2023-01-27T01:28:47.551Z,58.78
2023-01-27T01:31:17.738Z,58.90
2023-01-27T01:33:45.671Z,58.71
2023-01-27T01:36:16.565Z,58.84
2023-01-27T01:38:44.347Z,59.12
2023-01-27T01:41:15.624Z,59.45
2023-01-27T01:43:43.522Z,59.48
2023-01-27T01:46:12.194Z,59.23
2023-01-27T01:48:42.996Z,59.44
2023-01-27T01:51:13.800Z,59.45
2023-01-27T01:53:48.525Z,59.76
2023-01-27T01:56:20.654Z,59.60
2023-01-27T01:58:49.803Z,59.68
2023-01-27T02:01:19.404Z,60.01
2023-01-27T02:03:51.580Z,59.75
2023-01-27T02:06:19.403Z,59.88
2023-01-27T02:08:51.140Z,60.26
2023-01-27T02:11:19.247Z,60.19
2023-01-27T02:13:47.486Z,59.97
2023-01-27T02:16:15.334Z,60.16
2023-01-27T02:18:44.117Z,60.31
2023-01-27T02:21:11.732Z,60.42
2023-01-27T02:24:01.272Z,60.21
2023-01-27T02:26:33.246Z,60.39
2023-01-27T02:29:04.469Z,60.58
2023-01-27T02:31:32.535Z,60.48
2023-01-27T02:34:04.057Z,60.67
2023-01-27T02:36:34.551Z,60.41
2023-01-27T02:39:03.142Z,60.54
2023-01-27T02:41:36.250Z,60.60
2023-01-27T02:44:04.193Z,60.68
2023-01-27T02:46:32.225Z,60.56
2023-01-27T02:48:59.911Z,60.64
2023-01-27T02:51:27.555Z,60.88
2023-01-27T02:53:55.230Z,60.80
2023-01-27T02:56:24.186Z,60.93
2023-01-27T02:58:53.155Z,60.67
2023-01-27T03:01:20.858Z,60.77
2023-01-27T03:03:48.520Z,61.28
2023-01-27T03:06:16.563Z,61.07
2023-01-27T03:08:44.714Z,61.07
2023-01-27T03:11:12.796Z,61.12
2023-01-27T03:13:40.703Z,61.08
2023-01-27T03:16:29.562Z,61.16
2023-01-27T03:18:57.495Z,61.43
2023-01-27T03:21:25.130Z,61.19
2023-01-27T03:23:52.877Z,61.35
2023-01-27T03:26:20.552Z,61.24
2023-01-27T03:29:08.171Z,61.31
2023-01-27T03:31:37.328Z,61.22
2023-01-27T03:34:05.416Z,61.24
2023-01-27T03:36:50.563Z,61.38
2023-01-27T03:39:36.072Z,61.43
2023-01-27T03:42:21.402Z,61.45
2023-01-27T03:45:06.679Z,61.74
2023-01-27T03:47:35.727Z,61.41
2023-01-27T03:50:03.402Z,61.54
2023-01-27T03:52:31.104Z,61.88
2023-01-27T03:54:58.734Z,61.70
2023-01-27T03:57:26.565Z,61.56
2023-01-27T03:59:54.210Z,61.49
2023-01-27T04:02:39.329Z,61.64
2023-01-27T04:05:27.193Z,61.73
2023-01-27T04:07:54.834Z,61.71
2023-01-27T04:10:22.436Z,61.74
2023-01-27T04:12:49.113Z,61.86
2023-01-27T04:15:18.275Z,61.82
2023-01-27T04:17:45.898Z,62.09
2023-01-27T04:20:15.217Z,61.86
2023-01-27T04:22:42.891Z,61.85
2023-01-27T04:25:13.201Z,61.89
2023-01-27T04:27:42.259Z,61.90
2023-01-27T04:30:11.280Z,62.05
2023-01-27T04:32:38.911Z,62.18
2023-01-27T04:35:07.075Z,61.70
2023-01-27T04:37:36.058Z,61.98
2023-01-27T04:40:03.688Z,62.07
2023-01-27T04:42:31.330Z,61.92
2023-01-27T04:44:59.035Z,61.98
2023-01-27T04:47:26.651Z,62.05
2023-01-27T04:49:54.305Z,61.92
2023-01-27T04:52:23.003Z,61.93
2023-01-27T04:54:52.013Z,62.11
2023-01-27T04:57:20.255Z,61.98
2023-01-27T04:59:47.940Z,62.16
2023-01-27T05:02:15.681Z,62.16
2023-01-27T05:04:43.396Z,62.04
2023-01-27T05:07:11.041Z,61.96
2023-01-27T05:09:38.661Z,61.82
2023-01-27T05:12:08.079Z,61.92
2023-01-27T05:14:35.719Z,62.21
2023-01-27T05:17:03.494Z,62.46
2023-01-27T05:19:31.215Z,62.49
2023-01-27T05:21:58.879Z,62.21
2023-01-27T05:24:26.547Z,62.24
2023-01-27T05:26:54.441Z,62.41
2023-01-27T05:29:23.479Z,62.19
2023-01-27T05:31:51.165Z,62.34
2023-01-27T05:34:19.266Z,62.51
2023-01-27T05:36:46.944Z,62.07
2023-01-27T05:39:14.638Z,62.14
2023-01-27T05:41:42.333Z,62.26
2023-01-27T05:44:12.792Z,62.17
2023-01-27T05:46:43.292Z,61.93
2023-01-27T05:49:10.946Z,62.42
2023-01-27T05:51:40.671Z,62.32
2023-01-27T05:54:09.117Z,62.26
2023-01-27T05:56:36.893Z,62.27
2023-01-27T05:59:04.618Z,62.21
2023-01-27T06:01:33.939Z,62.59
2023-01-27T06:04:03.147Z,62.26
2023-01-27T06:06:32.241Z,62.40
2023-01-27T06:09:00.808Z,62.06
2023-01-27T06:11:28.723Z,62.49
2023-01-27T06:13:57.057Z,62.23
2023-01-27T06:16:25.184Z,62.50
2023-01-27T06:18:52.997Z,62.58
2023-01-27T06:21:22.009Z,62.52
2023-01-27T06:23:50.162Z,62.43
2023-01-27T06:26:20.353Z,62.56
2023-01-27T06:28:48.297Z,62.82
2023-01-27T06:31:18.382Z,62.60
2023-01-27T06:33:46.325Z,62.62
2023-01-27T06:36:15.742Z,62.45
2023-01-27T06:38:45.685Z,62.69
2023-01-27T06:41:13.403Z,62.39
2023-01-27T06:43:41.095Z,62.67
2023-01-27T06:46:08.884Z,62.54
2023-01-27T06:48:37.782Z,62.54
2023-01-27T06:51:05.788Z,62.33
2023-01-27T06:53:34.859Z,62.96
2023-01-27T06:56:04.277Z,62.74
2023-01-27T06:58:32.997Z,62.64
2023-01-27T07:01:00.779Z,62.67
2023-01-27T07:03:28.483Z,62.62
2023-01-27T07:05:56.162Z,62.54
2023-01-27T07:08:23.870Z,62.91
2023-01-27T07:10:51.483Z,63.01
2023-01-27T07:13:20.441Z,62.56
2023-01-27T07:15:48.844Z,62.84
2023-01-27T07:18:16.591Z,62.97
2023-01-27T07:20:44.433Z,62.89
2023-01-27T07:23:13.124Z,62.81
2023-01-27T07:25:41.139Z,62.97
2023-01-27T07:28:08.769Z,62.94
2023-01-27T07:30:39.320Z,62.97
2023-01-27T07:33:08.790Z,62.61
2023-01-27T07:35:37.098Z,62.87
2023-01-27T07:38:05.195Z,63.10
2023-01-27T07:40:32.903Z,63.00
2023-01-27T07:43:01.256Z,63.02
2023-01-27T07:45:30.140Z,62.89
2023-01-27T07:48:03.094Z,62.87
2023-01-27T07:50:31.238Z,62.80
2023-01-27T07:53:00.806Z,62.78
2023-01-27T07:55:28.592Z,62.85
2023-01-27T07:57:56.395Z,62.96
2023-01-27T08:00:24.690Z,63.08
2023-01-27T08:02:52.526Z,63.17
2023-01-27T08:05:22.579Z,62.73
2023-01-27T08:07:50.533Z,63.35
2023-01-27T08:10:18.832Z,63.21
2023-01-27T08:12:47.035Z,63.40
2023-01-27T08:15:18.740Z,63.33
2023-01-27T08:17:54.580Z,63.15
2023-01-27T08:20:23.770Z,63.13
2023-01-27T08:22:51.478Z,63.28
2023-01-27T08:25:19.285Z,63.44
2023-01-27T08:27:50.661Z,63.32
2023-01-27T08:30:19.305Z,63.16
2023-01-27T08:32:47.792Z,63.01
2023-01-27T08:35:15.504Z,63.34
2023-01-27T08:37:45.156Z,63.12
2023-01-27T08:40:14.406Z,63.25
2023-01-27T08:42:42.244Z,63.64
2023-01-27T08:45:10.304Z,63.48
2023-01-27T08:47:37.945Z,63.38
2023-01-27T08:50:06.059Z,63.50
2023-01-27T08:52:33.723Z,63.27
2023-01-27T08:55:02.739Z,63.35
2023-01-27T08:57:32.405Z,63.37
2023-01-27T09:00:00.223Z,63.81
2023-01-27T09:02:27.872Z,63.36
2023-01-27T09:04:55.519Z,63.12
2023-01-27T09:07:23.199Z,63.38
2023-01-27T09:09:58.160Z,63.63
2023-01-27T09:12:33.286Z,63.58
2023-01-27T09:15:00.892Z,63.81
2023-01-27T09:17:28.565Z,63.49
2023-01-27T09:19:56.232Z,63.50
2023-01-27T09:22:23.848Z,63.48
2023-01-27T09:24:51.457Z,63.23
2023-01-27T09:27:27.163Z,63.32
2023-01-27T09:30:02.387Z,63.54
2023-01-27T09:32:30.097Z,63.50
2023-01-27T09:34:57.705Z,63.50
2023-01-27T09:37:27.906Z,63.27
2023-01-27T09:40:02.723Z,63.62
2023-01-27T09:42:50.343Z,63.58
2023-01-27T09:45:43.090Z,63.44
2023-01-27T09:48:34.557Z,63.58
2023-01-27T09:51:10.674Z,63.64
2023-01-27T09:54:14.485Z,63.57
2023-01-27T09:56:53.711Z,63.58
2023-01-27T09:59:44.319Z,63.67
2023-01-27T10:02:28.197Z,63.69
2023-01-27T10:05:20.704Z,63.80
2023-01-27T10:08:14.792Z,63.68
2023-01-27T10:10:55.175Z,63.72
2023-01-27T10:13:36.051Z,63.71
2023-01-27T10:16:20.318Z,63.46
2023-01-27T10:19:05.296Z,63.41
2023-01-27T10:21:46.672Z,63.76
2023-01-27T10:24:27.693Z,63.79
2023-01-27T10:26:59.902Z,63.59
2023-01-27T10:29:31.499Z,63.94
2023-01-27T10:32:07.586Z,63.82
2023-01-27T10:34:38.237Z,61.66
2023-01-27T10:37:20.861Z,56.78
2023-01-27T10:39:57.843Z,52.66
2023-01-27T10:42:34.815Z,50.64
2023-01-27T10:45:17.430Z,49.51
2023-01-27T10:47:58.441Z,49.28
2023-01-27T10:50:32.172Z,48.66
2023-01-27T10:53:06.466Z,47.77
2023-01-27T10:55:42.069Z,46.91
2023-01-27T10:58:16.116Z,46.78
2023-01-27T11:01:18.037Z,46.38
2023-01-27T11:03:40.956Z,46.62
2023-01-27T11:06:14.891Z,45.93
2023-01-27T11:08:46.834Z,45.80
2023-01-27T11:11:35.519Z,46.17
2023-01-27T11:14:11.288Z,45.83
2023-01-27T11:16:41.253Z,45.80
2023-01-27T11:19:17.766Z,45.69
2023-01-27T11:21:53.042Z,44.98
2023-01-27T11:24:36.766Z,44.48
2023-01-27T11:27:14.479Z,44.67
2023-01-27T11:29:49.013Z,44.12
2023-01-27T11:32:27.131Z,44.26
2023-01-27T11:35:02.947Z,44.17
2023-01-27T11:37:35.099Z,44.27
2023-01-27T11:40:03.689Z,44.30
2023-01-27T11:42:33.193Z,44.17
2023-01-27T11:45:01.715Z,44.17
2023-01-27T11:47:33.619Z,44.51
2023-01-27T11:50:02.246Z,44.46
2023-01-27T11:52:30.164Z,44.65
2023-01-27T11:55:12.067Z,44.41
2023-01-27T11:57:44.360Z,44.38
2023-01-27T12:00:24.045Z,44.29
2023-01-27T12:03:00.453Z,44.44
2023-01-27T12:05:32.651Z,44.21
2023-01-27T12:08:02.523Z,44.14
2023-01-27T12:10:34.120Z,44.23
2023-01-27T12:13:08.924Z,46.36
2023-01-27T12:15:39.052Z,46.98
2023-01-27T12:18:15.034Z,47.68
2023-01-27T12:20:45.631Z,47.77
2023-01-27T12:23:22.868Z,48.01
2023-01-27T12:25:55.538Z,48.37
2023-01-27T12:28:29.285Z,48.79
2023-01-27T12:31:03.520Z,49.00
2023-01-27T12:33:33.521Z,49.61
2023-01-27T12:36:05.318Z,49.76
2023-01-27T12:38:37.189Z,50.19
2023-01-27T12:41:08.607Z,50.16
2023-01-27T12:43:51.604Z,50.61
2023-01-27T12:46:24.139Z,50.97
2023-01-27T12:48:53.200Z,50.99
2023-01-27T12:51:22.873Z,51.46
2023-01-27T12:53:51.661Z,51.57
2023-01-27T12:56:23.219Z,51.84
2023-01-27T12:58:58.859Z,51.87
2023-01-27T13:01:31.819Z,52.25
2023-01-27T13:04:02.186Z,52.28
2023-01-27T13:06:42.254Z,52.53
2023-01-27T13:09:25.292Z,52.71
2023-01-27T13:11:56.346Z,52.91
2023-01-27T13:14:24.215Z,52.96
2023-01-27T13:16:53.336Z,53.09
2023-01-27T13:19:21.435Z,53.37
2023-01-27T13:21:52.257Z,53.45
2023-01-27T13:24:28.392Z,53.67
2023-01-27T13:26:58.435Z,53.83
2023-01-27T13:29:31.901Z,54.04
2023-01-27T13:32:05.869Z,54.11
2023-01-27T13:34:39.391Z,54.29
2023-01-27T13:37:13.211Z,54.54
2023-01-27T13:39:58.675Z,54.50
2023-01-27T13:42:34.423Z,54.54
2023-01-27T13:45:05.777Z,54.72
2023-01-27T13:47:41.509Z,54.73
2023-01-27T13:50:17.992Z,54.96
2023-01-27T13:52:47.169Z,55.00
2023-01-27T13:55:15.811Z,55.21
2023-01-27T13:57:55.409Z,55.30
2023-01-27T14:00:28.289Z,55.37
2023-01-27T14:03:18.945Z,55.65
2023-01-27T14:06:01.317Z,55.55
2023-01-27T14:08:49.498Z,56.00
2023-01-27T14:11:26.422Z,55.65
2023-01-27T14:14:06.059Z,56.09
2023-01-27T14:16:42.420Z,55.93
2023-01-27T14:19:24.917Z,55.99
2023-01-27T14:21:58.704Z,56.08
2023-01-27T14:24:37.091Z,56.12
2023-01-27T14:27:10.471Z,55.97
2023-01-27T14:29:47.076Z,56.25
2023-01-27T14:32:26.775Z,56.26
2023-01-27T14:35:09.767Z,56.74
2023-01-27T14:37:48.490Z,56.43
2023-01-27T14:40:21.607Z,56.82
2023-01-27T14:43:03.835Z,56.47
2023-01-27T14:45:36.808Z,56.65
2023-01-27T14:48:14.629Z,56.64
2023-01-27T14:50:50.873Z,56.83
2023-01-27T14:53:32.294Z,57.04
2023-01-27T14:56:06.944Z,57.21
2023-01-27T14:58:45.765Z,57.29
2023-01-27T15:01:26.107Z,57.39
2023-01-27T15:04:32.640Z,57.32
2023-01-27T15:07:05.070Z,57.33
2023-01-27T15:09:44.425Z,57.54
2023-01-27T15:12:48.356Z,57.57
2023-01-27T15:15:50.464Z,57.38
2023-01-27T15:18:32.550Z,57.80
2023-01-27T15:21:18.145Z,57.53
2023-01-27T15:24:02.511Z,57.84
2023-01-27T15:26:32.824Z,57.63
2023-01-27T15:29:01.820Z,57.77
2023-01-27T15:31:31.021Z,57.77
2023-01-27T15:34:17.736Z,57.80
2023-01-27T15:37:02.274Z,57.58
2023-01-27T15:39:41.379Z,57.95
2023-01-27T15:42:12.454Z,57.77
2023-01-27T15:44:42.634Z,58.15
2023-01-27T15:47:12.893Z,57.85
2023-01-27T15:49:46.897Z,58.05
2023-01-27T15:52:29.748Z,58.17
2023-01-27T15:55:01.075Z,58.14
2023-01-27T15:57:32.140Z,58.22
2023-01-27T16:00:06.030Z,58.35
2023-01-27T16:02:38.001Z,58.19
2023-01-27T16:05:27.259Z,58.32
2023-01-27T16:08:00.118Z,58.22
2023-01-27T16:10:32.252Z,58.22
2023-01-27T16:13:26.048Z,58.18
2023-01-27T16:16:32.629Z,58.26
2023-01-27T16:19:19.209Z,58.60
2023-01-27T16:21:53.003Z,58.29
2023-01-27T16:24:34.332Z,58.38
2023-01-27T16:27:08.772Z,58.51
2023-01-27T16:29:40.773Z,58.64
2023-01-27T16:32:17.381Z,58.74
2023-01-27T16:34:49.173Z,58.70
2023-01-27T16:37:24.902Z,58.67
2023-01-27T16:40:00.063Z,58.74
2023-01-27T16:42:34.076Z,58.71
2023-01-27T16:45:05.434Z,58.93
2023-01-27T16:47:42.335Z,58.79
2023-01-27T16:50:33.923Z,58.81
2023-01-27T16:53:04.849Z,58.94
2023-01-27T16:55:32.781Z,58.82
2023-01-27T16:58:02.651Z,58.85
2023-01-27T17:00:33.495Z,59.00
2023-01-27T17:03:06.503Z,59.14
2023-01-27T17:05:34.308Z,59.04
2023-01-27T17:08:05.274Z,58.90
2023-01-27T17:10:35.139Z,58.85
2023-01-27T17:13:03.216Z,59.07
2023-01-27T17:15:36.017Z,59.09
2023-01-27T17:18:09.240Z,58.68
2023-01-27T17:20:40.465Z,57.96
2023-01-27T17:23:21.347Z,58.10
2023-01-27T17:25:50.643Z,57.88
2023-01-27T17:28:22.536Z,57.85
2023-01-27T17:30:50.691Z,57.84
2023-01-27T17:33:21.241Z,57.39
2023-01-27T17:35:54.664Z,57.53
2023-01-27T17:38:25.220Z,57.39
2023-01-27T17:40:54.960Z,57.45
2023-01-27T17:43:31.868Z,57.25
2023-01-27T17:46:16.018Z,57.83
2023-01-27T17:48:48.844Z,57.92
2023-01-27T17:51:21.374Z,58.15
2023-01-27T17:53:51.183Z,58.43
2023-01-27T17:56:23.602Z,58.45
2023-01-27T17:58:55.724Z,59.05
2023-01-27T18:01:23.919Z,58.88
2023-01-27T18:03:55.236Z,58.54
2023-01-27T18:06:26.153Z,58.86
2023-01-27T18:08:57.113Z,59.01
2023-01-27T18:11:31.193Z,59.04
2023-01-27T18:14:08.419Z,59.20
2023-01-27T18:16:36.681Z,59.22
2023-01-27T18:19:09.836Z,59.18
2023-01-27T18:21:37.725Z,59.28
2023-01-27T18:24:21.001Z,59.21
2023-01-27T18:26:50.373Z,59.15
2023-01-27T18:29:23.092Z,59.43
2023-01-27T18:31:54.794Z,59.26
2023-01-27T18:34:26.631Z,59.74
2023-01-27T18:36:57.019Z,59.54
2023-01-27T18:39:41.711Z,59.80
2023-01-27T18:42:14.733Z,59.62
2023-01-27T18:44:42.384Z,59.57
2023-01-27T18:47:31.560Z,59.78
2023-01-27T18:50:02.785Z,59.68
2023-01-27T18:52:30.635Z,59.84
2023-01-27T18:55:03.589Z,59.82
2023-01-27T18:57:31.211Z,59.60
2023-01-27T18:59:58.819Z,59.74
2023-01-27T19:02:27.058Z,59.70
2023-01-27T19:04:54.801Z,60.03
2023-01-27T19:07:22.427Z,59.74
2023-01-27T19:09:50.282Z,60.15
2023-01-27T19:12:19.323Z,59.87
2023-01-27T19:14:48.400Z,59.82
2023-01-27T19:17:19.937Z,59.76
2023-01-27T19:19:47.640Z,59.61
2023-01-27T19:22:17.918Z,59.69
2023-01-27T19:24:46.199Z,59.92
2023-01-27T19:27:15.292Z,59.88
2023-01-27T19:29:44.406Z,59.99
2023-01-27T19:32:15.184Z,60.27
2023-01-27T19:34:42.859Z,59.91
2023-01-27T19:37:17.487Z,60.01
2023-01-27T19:39:45.747Z,60.10
2023-01-27T19:42:15.101Z,60.12
2023-01-27T19:44:44.069Z,60.24
2023-01-27T19:47:13.350Z,60.11
2023-01-27T19:49:41.687Z,60.15
2023-01-27T19:52:10.069Z,60.14
2023-01-27T19:54:37.773Z,60.07
2023-01-27T19:57:06.346Z,60.15
2023-01-27T19:59:34.009Z,60.07
2023-01-27T20:02:03.115Z,60.18
2023-01-27T20:04:30.803Z,60.25
2023-01-27T20:06:58.415Z,60.22
2023-01-27T20:09:26.058Z,60.31
2023-01-27T20:11:53.669Z,60.66
2023-01-27T20:14:25.744Z,60.16
2023-01-27T20:16:53.589Z,60.37
2023-01-27T20:19:23.040Z,60.35
2023-01-27T20:21:51.127Z,60.38
2023-01-27T20:24:20.126Z,60.64
2023-01-27T20:26:48.114Z,60.13
2023-01-27T20:29:15.785Z,60.52
2023-01-27T20:31:43.725Z,60.53
2023-01-27T20:34:11.568Z,60.38
2023-01-27T20:36:40.595Z,60.18
2023-01-27T20:39:08.225Z,60.54
2023-01-27T20:41:35.871Z,60.51
2023-01-27T20:44:03.552Z,60.51
2023-01-27T20:46:31.504Z,60.64
2023-01-27T20:49:00.059Z,60.59
2023-01-27T20:51:27.748Z,60.64
2023-01-27T20:53:57.801Z,60.91
2023-01-27T20:56:25.644Z,60.56
2023-01-27T20:58:54.230Z,60.45
2023-01-27T21:01:24.300Z,60.49
2023-01-27T21:03:52.012Z,60.46
2023-01-27T21:06:20.455Z,60.93
2023-01-27T21:08:49.160Z,60.77
2023-01-27T21:11:21.204Z,60.76
2023-01-27T21:13:49.037Z,60.81
2023-01-27T21:16:16.710Z,60.85
2023-01-27T21:18:45.585Z,61.00
2023-01-27T21:21:23.862Z,60.61
2023-01-27T21:23:51.593Z,60.95
2023-01-27T21:26:21.027Z,60.90
2023-01-27T21:28:48.923Z,60.89
2023-01-27T21:31:18.934Z,61.08
2023-01-27T21:33:48.057Z,60.94
2023-01-27T21:36:15.687Z,60.87
2023-01-27T21:38:43.501Z,60.92
2023-01-27T21:41:13.981Z,60.98
2023-01-27T21:44:00.369Z,61.12
2023-01-27T21:46:28.021Z,60.89
2023-01-27T21:48:55.664Z,61.30
2023-01-27T21:51:23.296Z,61.03
2023-01-27T21:53:50.912Z,60.98
2023-01-27T21:56:18.529Z,61.31
2023-01-27T21:58:47.533Z,61.01
2023-01-27T22:01:15.287Z,60.93
2023-01-27T22:03:42.965Z,61.57
2023-01-27T22:06:11.421Z,61.20
2023-01-27T22:08:39.124Z,61.36
2023-01-27T22:11:09.500Z,60.99
2023-01-27T22:13:39.008Z,61.18
2023-01-27T22:16:12.435Z,61.47
2023-01-27T22:18:40.133Z,61.47
2023-01-27T22:21:07.782Z,61.42
2023-01-27T22:23:35.453Z,61.33
2023-01-27T22:26:03.172Z,61.16
2023-01-27T22:28:30.819Z,61.21
2023-01-27T22:31:01.740Z,61.27
2023-01-27T22:33:32.078Z,61.35
2023-01-27T22:36:00.920Z,61.30
2023-01-27T22:38:28.596Z,60.96
2023-01-27T22:40:57.622Z,61.37
2023-01-27T22:43:25.409Z,61.43
2023-01-27T22:45:53.157Z,61.38
2023-01-27T22:48:20.994Z,61.27
2023-01-27T22:50:49.988Z,61.38
2023-01-27T22:53:17.613Z,61.16
2023-01-27T22:55:45.296Z,61.35
2023-01-27T22:58:12.942Z,61.36
2023-01-27T23:00:40.549Z,61.61
2023-01-27T23:03:08.191Z,61.30
2023-01-27T23:05:35.809Z,61.42
2023-01-27T23:08:04.817Z,61.51
2023-01-27T23:10:32.474Z,61.45
2023-01-27T23:13:00.098Z,61.29
2023-01-27T23:15:28.005Z,61.40
2023-01-27T23:17:55.775Z,61.49
2023-01-27T23:20:24.137Z,61.47
2023-01-27T23:22:51.945Z,61.53
2023-01-27T23:25:20.935Z,61.58
2023-01-27T23:27:48.562Z,61.73
2023-01-27T23:30:16.249Z,61.74
2023-01-27T23:32:45.757Z,61.56
2023-01-27T23:35:13.732Z,61.45
2023-01-27T23:37:41.671Z,61.89
2023-01-27T23:40:10.611Z,59.92
2023-01-27T23:42:40.095Z,57.69
2023-01-27T23:45:08.586Z,54.87
2023-01-27T23:47:36.286Z,52.45
2023-01-27T23:50:04.065Z,50.87
2023-01-27T23:52:34.308Z,49.54
2023-01-27T23:55:01.961Z,47.60
2023-01-27T23:57:29.598Z,46.02
2023-01-27T23:59:58.617Z,44.90
